Decoded Metar for NZWN (WELLINGTON in NEW ZEALAND) (IATA:WLG) | Meteo·Mobile Aviation Weather
aviador You're here:

NZWN Decoded Metar

WELLINGTON in NEW ZEALAND
Report Time2018-10-19 09:00:00
UTC Time2018-10-19 09:28:19
Flight Rules vfr VFR
Wind010° at 19 kt
W.Decomp.*RWY 34: 18.8 kt HW 3.0 kt RCW
W.Rank010° ranks 2
Current wind is above 010° avg. (14.2)
Visibility9999 m
Phenomena:N/A
Clouds:N/A
Expected CloudBase > 1,200 ft AGL from Temp-Dew spread
CeilingNone
Temp14°C (ISA -1)
Dew Point11°C (82% RH)
AAT7.5°C
QNH1026 hPa
Density Alt-351 ft
Elevation23 ft
Report Wrong Elevation
Raw Report
NZWN 190900Z AUTO 01019KT 9999 NCD 14/11 Q1026 NOSIG=

Extra information for NZWN:More info

Metar Taf Metar & Taf Last 4 Metars F.Rules Stats Wind Profile Meteogram Temp Stats Airport Information Weather charts Add Link Nearby VenuesMetar ALERT Operation Metar Decoded Social comments